Carnmore, Ireland

12:18 PM IST on August 27, 2016 (GMT +0100)
Oranmore | | Change Station

Elev 0 ft 53.27 °N, 8.93 °W | Updated 1 minute ago

Mostly Cloudy
Mostly Cloudy
62.4 °F
Feels Like 62.4 °F
N
6.0
Wind Variable Wind from ESE
Gusts 13.0 mph

Today
High -- | Low -- °F
--% Chance of Precip.
Yesterday
High -- | Low -- °F
Precip. -- in
Pressure 29.95 in
Visibility 6.2 miles
Clouds Few 1900 ft
Scattered Clouds 5000 ft
Mostly Cloudy 12000 ft
Dew Point 58 °F
Humidity 86%
Rainfall 0.00 in
Snow Depth Not available.
6:37 AM 8:35 PM
Waning Crescent, 25% visible
METAR EINN 271100Z 11010KT 9999 FEW019 SCT050 BKN120 18/13 Q1014 NOSIG
Pressure 29.95 in
Visibility 6.2 miles
Clouds Few 1900 ft
Scattered Clouds 5000 ft
Mostly Cloudy 12000 ft
Dew Point 58 °F
Humidity 86%
Rainfall 0.00 in
Snow Depth Not available.
6:37 AM 8:35 PM
Waning Crescent, 25% visible
METAR EINN 271100Z 11010KT 9999 FEW019 SCT050 BKN120 18/13 Q1014 NOSIG

10-Day Weather Forecast

×

Almanac

Astronomy

Aug. 27, 2016 Rise Set
Actual Time
Civil Twilight
Nautical Twilight
Astronomical Twilight
Moon
Length of Visible Light
Length of Day
Tomorrow will be .
, % of the Moon is Illuminated

Today's Extremes

Country Highs Country Lows

Community

WunderPhotos

Upload Photos

1,935,322 photos uploaded!

WunderBlog® & News

Nearby

Air Quality

  Air Quality AQ Index Pollutant
Not available.

Snow Depth

Station Depth Elevation

Earthquake Activity

City Distance Mag. Time & Date
Minimum magnitude displayed is 2.5.

Coastal Water Temperatures

Place Temperature

Stations

Nearby Weather Stations

Station Location Temp. Windchill Dew Point Humidity Wind Precip. Elev Updated Type